Relevés horaires Melle (Belgique)


Relevés horaires à Melle - Dimanche 22 Nov. 2015
Heure UTC1 Température [°C] Vent [km/h] Hum. [%] Pres.4 [hPa] Visi. [Km] Nébu. [octa] Préc.5 [mm] Cond.
2m. Res. Ros. Dir.2 Vit. Moy. Raf.3
23:00 0.5 0.5 -0.4 O 3.7 3.7 5.6 94 1019.3(2.6/3h) -- -- -- --
22:00 0.0 0.0 -1.1 OSO 3.7 3.7 3.7 92 1018.5(2.3/3h) -- -- -- --
21:00 1.6 1.6 0.3 S 1.9 9.3 13.0 91 1017.8(2.6/3h) -- -- -- --
20:00 2.0 2.0 0.6 SE 3.7 7.4 7.4 90 1016.7(2.1/3h) -- -- -- --
19:00 3.3 1.3 2.2 NNO 7.4 9.3 13.0 92 1016.2(2.1/3h) -- -- -- --
18:00 2.4 2.4 1.3 O 3.7 9.3 14.8 92 1015.2(2.0/3h) -- -- 9/12h
--
17:00 1.7 0.1 0.4 OSO 5.6 5.6 7.4 91 1014.6(1.7/3h) -- -- -- --
16:00 2.2 0.7 0.7 O 5.6 7.4 11.1 90 1014.1(1.5/3h) -- -- -- --
15:00 3.6 1.7 1.8 O 7.4 9.3 14.8 88 1013.2(1.0/3h) -- -- -- --
14:00 5.1 3.4 2.6 O 7.4 7.4 11.1 84 1012.8(0.7/3h) -- -- -- --
13:00 5.0 3.9 3.0 O 5.6 7.4 11.1 87 1012.5(1.1/3h) -- -- -- --
12:00 5.1 4 3.4 O 5.6 7.4 11.1 89 1012.1(1.2/3h) -- -- 8/6h
--
11:00 3.5 1.5 2.0 N 7.4 7.4 11.1 90 1012.2(1.4/3h) -- -- -- --
10:00 3.5 1.5 2.4 OSO 7.4 7.4 11.1 92 1011.5(1.6/3h) -- -- -- --
09:00 2.2 0.7 1.2 OSO 5.6 7.4 11.1 93 1011(1.8/3h) -- -- -- --
08:00 1.4 1.4 0.3 SO 3.7 3.7 5.6 92 1010.8(2.0/3h) -- -- -- --
07:00 1.7 1.7 0.4 ONO 1.9 3.7 3.7 91 1009.9(1.5/3h) -- -- -- --
06:00 2.4 2.4 1.0 NNE 3.7 11.1 14.8 90 1009.2(1.1/3h) -- -- 9/12h
--
05:00 2.5 1 1.0 NO 5.6 11.1 14.8 90 1008.8(0.8/3h) -- -- -- --
04:00 2.4 0.3 1.1 O 7.4 7.4 13.0 91 1008.4(0.6/3h) -- -- -- --
03:00 2.5 1 1.3 O 5.6 5.6 9.3 92 1008.1(0.8/3h) -- -- -- --
02:00 2.5 1 1.4 O 5.6 5.6 9.3 92 1008(1.2/3h) -- -- -- --
01:00 2.3 0.8 1.1 O 5.6 5.6 5.6 92 1007.8(1.3/3h) -- -- -- --
00:00 2.3 2.3 0.8 SSO 3.7 18.5 27.8 90 1007.3(1.2/3h) -- -- 6/6h
--

1 Coordinated Universal Time. Actuellement il est 10:00 locale et 08:00 UTC.

2 Le vent souffle depuis la direction indiquée vers la direction oposée.

3 Les rafales max. sont disponible 40 min après l'heure du relevé.

4 Pour les stations d'altitude (plus de 600m) le géopotentiel du niveau le plus proche de la pression obligatoire est indiqué.

5 Les stations disposant d'un diffuseur peuvent indiquer "trace". Cela signifie que des précipitations ont touchés le sol mais que la quantité est inférieure à 0.1 mm.

Récapitulatif de la journée
Température [°C] Vent [km/h] Ensoleillement4 [h] Precipitations totale5 [mm] Pression [Hpa]
Min1 Max.2 Moy.3 Max. Min Max.
1.1 5.7 7.6 27.8 0 h 0 min 0 1007.3 1019.3

1 Température minimale relevée entre 18:00 UTC la veille et 18:00 UTC le jour donné.

2 Température maximale relevée entre 06:00 UTC le jour donné et 06:00 UTC le lendemain.

3 Vent moyen de la journée basé sur les relevés horaires.

4 Ensoleillement en heures relevé entre 06:00 UTC la veille et 06:00 UTC le jour donné.

5 Précipitations totales tombées entre 06:00 UTC la jour donné et 06:00 UTC le lendemain.

Graphiques horaires